Marica, Brazil
Current Conditions -  °F | °C
As of 8:00 PM on Thursday 27 Nov 2014 (Local Time) from SBRJ Reporting Station
Light Rain Light Rain  
Wind Chill: 77°   Ceiling: 1200
Heat Index: 78°   Visibility: 4mi
Dew Point: 72°   Wind: 8mph
Humidity: 83%   Direction: 210°SSW
Pressure: 29.88"   Gusts: NA
Location:  22.92°S, 42.82°W
Report Text: SBRJ 272200Z 21007KT 6000 -RA SCT007 BKN012 OVC070 25/22 Q1012
Loading
Personal Weather Stations






























Interactive Weather Map New forecast layout! Learn more

10-Day Weather Forecast

Advertisements
Track Severe Weather on mobile